createdAt,value
2023-05-11T00:04:30.915Z,25.6
2023-05-11T00:10:07.333Z,25.8
2023-05-11T00:15:28.238Z,25.8
2023-05-11T00:21:05.193Z,25.6
2023-05-11T00:26:41.204Z,25.4
2023-05-11T00:32:03.529Z,25.2
2023-05-11T00:37:42.310Z,24.9
2023-05-11T00:43:19.268Z,24.7
2023-05-11T00:48:55.343Z,24.4
2023-05-11T00:54:31.322Z,24.3
2023-05-11T01:00:07.502Z,24
2023-05-11T01:05:44.729Z,23.8
2023-05-11T01:11:20.764Z,23.6
2023-05-11T01:17:13.063Z,23.4
2023-05-11T01:22:49.316Z,23.3
2023-05-11T01:28:25.092Z,23.1
2023-05-11T01:34:19.451Z,23.1
2023-05-11T01:40:10.646Z,23.1
2023-05-11T01:46:02.138Z,23.2
2023-05-11T01:51:38.906Z,23.3
2023-05-11T01:57:30.282Z,23.5
2023-05-11T02:03:22.301Z,23.8
2023-05-11T02:09:13.985Z,23.9
2023-05-11T02:15:05.388Z,24.1
2023-05-11T02:20:57.819Z,24.2
2023-05-11T02:26:49.356Z,24.3
2023-05-11T02:32:25.944Z,24.4
2023-05-11T02:38:17.958Z,24.4
2023-05-11T02:44:10.260Z,24.4
2023-05-11T02:50:02.356Z,24.4
2023-05-11T02:55:54.377Z,24.4
2023-05-11T03:01:47.665Z,24.3
2023-05-11T03:07:40.505Z,24.3
2023-05-11T03:13:33.739Z,24.2
2023-05-11T03:19:26.111Z,24.2
2023-05-11T03:25:17.585Z,24.1
2023-05-11T03:31:09.599Z,23.9
2023-05-11T03:37:04.189Z,23.9
2023-05-11T03:42:55.701Z,23.8
2023-05-11T03:48:49.785Z,23.7
2023-05-11T03:54:41.684Z,23.6
2023-05-11T04:00:33.461Z,23.5
2023-05-11T04:06:26.361Z,23.4
2023-05-11T04:12:17.727Z,23.3
2023-05-11T04:18:09.808Z,23.2
2023-05-11T04:24:01.821Z,23.1
2023-05-11T04:29:53.217Z,23
2023-05-11T04:35:44.609Z,22.9
2023-05-11T04:41:36.632Z,22.8
2023-05-11T04:47:27.938Z,22.7
2023-05-11T04:53:04.224Z,22.6
2023-05-11T04:58:40.880Z,22.5
2023-05-11T05:04:17.501Z,22.4
2023-05-11T05:09:55.780Z,22.4
2023-05-11T05:15:46.703Z,22.3
2023-05-11T05:21:38.513Z,22.2
2023-05-11T05:27:29.734Z,22.1
2023-05-11T05:33:07.003Z,22.1
2023-05-11T05:38:43.390Z,21.9
2023-05-11T05:44:34.518Z,21.9
2023-05-11T05:50:28.670Z,21.9
2023-05-11T05:56:20.101Z,21.8
2023-05-11T06:02:13.695Z,21.7
2023-05-11T06:08:25.621Z,21.6
2023-05-11T06:14:03.579Z,21.6
2023-05-11T06:19:55.617Z,21.5
2023-05-11T06:25:46.744Z,21.4
2023-05-11T06:31:26.752Z,21.4
2023-05-11T06:36:48.137Z,21.4
2023-05-11T06:42:40.026Z,21.3
2023-05-11T06:48:32.962Z,21.3
2023-05-11T06:54:28.099Z,21.3
2023-05-11T07:00:19.608Z,21.2
2023-05-11T07:06:11.741Z,21.2
2023-05-11T07:12:04.318Z,21.2
2023-05-11T07:17:56.736Z,21.2
2023-05-11T07:40:08.678Z,21.1
2023-05-11T07:46:03.420Z,21.1
2023-05-11T07:52:29.618Z,21.1
2023-05-11T07:58:06.304Z,21.1
2023-05-11T08:03:59.068Z,21.1
2023-05-11T08:09:53.929Z,21.1
2023-05-11T08:15:30.733Z,21.1
2023-05-11T08:21:23.360Z,21.1
2023-05-11T08:27:17.982Z,21.1
2023-05-11T08:33:00.738Z,21.1
2023-05-11T08:38:45.309Z,21.1
2023-05-11T08:44:38.179Z,21
2023-05-11T08:50:49.223Z,21.1
2023-05-11T08:56:41.488Z,21.1
2023-05-11T09:02:33.829Z,21
2023-05-11T09:08:26.545Z,21
2023-05-11T09:14:05.040Z,21.1
2023-05-11T09:20:20.172Z,21.1
2023-05-11T09:25:41.097Z,21
2023-05-11T09:31:48.585Z,21
2023-05-11T09:37:28.512Z,21
2023-05-11T09:43:33.007Z,21
2023-05-11T09:49:28.987Z,21.1
2023-05-11T09:55:24.051Z,21
2023-05-11T10:00:59.865Z,21
2023-05-11T10:06:36.964Z,21
2023-05-11T10:12:32.787Z,20.9
2023-05-11T10:18:10.323Z,20.9
2023-05-11T10:24:02.840Z,20.9
2023-05-11T10:29:56.364Z,20.9
2023-05-11T10:35:47.971Z,20.9
2023-05-11T10:41:40.092Z,20.9
2023-05-11T10:47:35.405Z,20.9
2023-05-11T10:53:28.265Z,20.9
2023-05-11T10:59:21.644Z,20.9
2023-05-11T11:05:14.024Z,20.9
2023-05-11T11:11:06.670Z,20.9
2023-05-11T11:16:58.869Z,20.9
2023-05-11T11:22:50.597Z,20.9
2023-05-11T11:28:41.721Z,20.9
2023-05-11T11:34:33.614Z,20.9
2023-05-11T11:40:36.618Z,20.9
2023-05-11T11:46:39.704Z,20.9
2023-05-11T11:52:31.456Z,20.9
2023-05-11T11:58:24.049Z,20.9
2023-05-11T12:04:18.572Z,20.9
2023-05-11T12:10:11.158Z,21
2023-05-11T12:16:02.613Z,20.9
2023-05-11T12:21:54.302Z,20.9
2023-05-11T12:27:46.105Z,21
2023-05-11T12:33:38.142Z,20.9
2023-05-11T12:39:29.524Z,21
2023-05-11T12:45:20.656Z,20.9
2023-05-11T12:51:12.475Z,20.9
2023-05-11T12:57:03.989Z,21
2023-05-11T13:02:55.730Z,20.9
2023-05-11T13:08:32.169Z,20.9
2023-05-11T13:14:26.514Z,20.9
2023-05-11T13:20:19.281Z,21
2023-05-11T13:26:12.320Z,20.9
2023-05-11T13:32:16.209Z,21
2023-05-11T13:37:52.469Z,21
2023-05-11T13:43:43.657Z,21
2023-05-11T13:49:39.482Z,21
2023-05-11T13:55:31.279Z,21
2023-05-11T14:01:40.059Z,21
2023-05-11T14:07:46.161Z,21
2023-05-11T14:13:39.697Z,21
2023-05-11T14:19:33.726Z,21
2023-05-11T14:25:33.945Z,21
2023-05-11T14:31:28.493Z,20.9
2023-05-11T14:37:21.614Z,20.9
2023-05-11T14:43:14.029Z,21
2023-05-11T14:49:06.653Z,20.9
2023-05-11T14:54:58.499Z,20.9
2023-05-11T15:01:05.159Z,20.9
2023-05-11T15:06:58.637Z,20.9
2023-05-11T15:13:06.103Z,20.9
2023-05-11T15:18:59.627Z,20.9
2023-05-11T15:24:52.049Z,20.9
2023-05-11T15:30:46.412Z,20.9
2023-05-11T15:36:54.980Z,20.9
2023-05-11T15:42:48.895Z,20.9
2023-05-11T15:48:41.752Z,20.9
2023-05-11T15:54:21.156Z,20.9
2023-05-11T16:00:15.172Z,20.9
2023-05-11T16:06:10.499Z,20.9
2023-05-11T16:12:03.976Z,20.9
2023-05-11T16:18:00.055Z,20.9
2023-05-11T16:23:55.629Z,20.9
2023-05-11T16:29:52.479Z,20.8
2023-05-11T16:36:02.062Z,20.8
2023-05-11T16:41:58.191Z,20.8
2023-05-11T16:47:53.783Z,20.8
2023-05-11T16:53:53.581Z,20.8
2023-05-11T16:59:53.319Z,20.8
2023-05-11T17:05:56.820Z,20.8
2023-05-11T17:11:56.735Z,20.8
2023-05-11T17:17:57.967Z,20.8
2023-05-11T17:23:58.444Z,20.8
2023-05-11T17:30:10.728Z,20.8
2023-05-11T17:36:44.970Z,20.8
2023-05-11T17:42:54.578Z,20.8
2023-05-11T17:48:56.389Z,20.8
2023-05-11T17:54:57.200Z,20.7
2023-05-11T18:00:58.244Z,20.7
2023-05-11T18:07:13.176Z,20.7
2023-05-11T18:13:16.582Z,20.7
2023-05-11T18:19:02.974Z,20.7
2023-05-11T18:25:03.803Z,20.7
2023-05-11T18:31:03.821Z,20.7
2023-05-11T18:36:48.809Z,20.7
2023-05-11T18:42:50.712Z,20.6
2023-05-11T18:48:50.566Z,20.6
2023-05-11T18:54:56.568Z,20.6
2023-05-11T19:01:09.426Z,20.6
2023-05-11T19:07:22.518Z,20.6
2023-05-11T19:13:26.551Z,20.6
2023-05-11T19:19:29.119Z,20.6
2023-05-11T19:25:33.116Z,20.6
2023-05-11T19:31:42.103Z,20.6
2023-05-11T19:37:43.306Z,20.6
2023-05-11T19:44:36.528Z,20.6
2023-05-11T19:50:41.310Z,20.6
2023-05-11T19:56:41.828Z,20.6
2023-05-11T20:06:42.255Z,20.6
2023-05-11T20:12:45.606Z,20.5
2023-05-11T20:18:46.928Z,20.6
2023-05-11T20:24:47.968Z,20.5
2023-05-11T20:30:49.464Z,20.5
2023-05-11T20:37:03.576Z,20.5
2023-05-11T20:43:02.895Z,20.5
2023-05-11T20:49:14.187Z,20.5
2023-05-11T20:55:21.836Z,20.5
2023-05-11T21:01:30.414Z,20.5
2023-05-11T21:07:30.961Z,20.4
2023-05-11T21:13:28.538Z,20.5
2023-05-11T21:19:27.179Z,20.4
2023-05-11T21:25:07.241Z,20.4
2023-05-11T21:30:45.939Z,20.4
2023-05-11T21:36:09.233Z,20.4
2023-05-11T21:41:46.337Z,20.4
2023-05-11T21:47:06.994Z,20.4
2023-05-11T21:52:43.032Z,20.4
2023-05-11T21:58:19.087Z,20.4
2023-05-11T22:03:56.996Z,20.4
2023-05-11T22:09:40.872Z,20.4
2023-05-11T22:15:17.153Z,20.4
2023-05-11T22:20:53.535Z,20.4
2023-05-11T22:26:29.438Z,20.4
2023-05-11T22:32:05.817Z,20.4
2023-05-11T22:37:26.655Z,20.3
2023-05-11T22:42:47.394Z,20.3
2023-05-11T22:48:08.670Z,20.4
2023-05-11T22:53:29.181Z,20.4
2023-05-11T22:58:34.768Z,20.4
2023-05-11T23:03:57.454Z,20.3
2023-05-11T23:09:33.377Z,20.3
2023-05-11T23:14:53.627Z,20.3
2023-05-11T23:20:15.408Z,20.3
2023-05-11T23:25:20.525Z,20.3
2023-05-11T23:30:41.092Z,20.3
2023-05-11T23:36:03.151Z,20.3
2023-05-11T23:41:24.153Z,20.2
2023-05-11T23:47:00.595Z,20.3
2023-05-11T23:52:21.749Z,20.3
2023-05-11T23:57:58.837Z,20.3
